Time;durP1;ratioP1;P1;durP2;ratioP2;P2;SDS_P1;SDS_P2;PMS_P1;PMS_P2;Temp;Humidity;BMP_temperature;BMP_pressure;BME280_temperature;BME280_humidity;BME280_pressure;Samples;Min_cycle;Max_cycle;Signal;HPM_P1;HPM_P2
2023/11/22 00:00:14;;;;;;;;;;;19.60;67.40;;;;;;4998495;28;1337;-71
2023/11/22 00:02:40;;;;;;;;;;;19.50;67.40;;;;;;5001656;28;1341;-71
2023/11/22 00:05:05;;;;;;;;;;;19.60;67.40;;;;;;4982969;28;1293;-71
2023/11/22 00:07:31;;;;;;;;;;;19.50;67.40;;;;;;4993934;28;1420;-70
2023/11/22 00:09:57;;;;;;;;;;;19.50;67.40;;;;;;4990503;28;1554;-71
2023/11/22 00:12:24;;;;;;;;;;;19.50;68.20;;;;;;5004444;28;1176;-71
2023/11/22 00:14:50;;;;;;;;;;;19.50;67.40;;;;;;4992891;28;1328;-71
2023/11/22 00:17:17;;;;;;;;;;;19.60;67.50;;;;;;4996789;28;1363;-71
2023/11/22 00:19:45;;;;;;;;;;;19.50;67.40;;;;;;4987496;28;1911;-71
2023/11/22 00:22:13;;;;;;;;;;;19.50;67.40;;;;;;4986325;28;1365;-70
2023/11/22 00:24:39;;;;;;;;;;;19.50;67.50;;;;;;5004592;28;1269;-71
2023/11/22 00:27:04;;;;;;;;;;;19.50;67.40;;;;;;5003298;28;1383;-71
2023/11/22 00:29:30;;;;;;;;;;;19.50;67.40;;;;;;4992572;28;968;-71
2023/11/22 00:31:55;;;;;;;;;;;19.50;67.40;;;;;;5003369;28;1489;-70
2023/11/22 00:34:24;;;;;;;;;;;19.50;67.50;;;;;;5006470;28;1497;-71
2023/11/22 00:36:50;;;;;;;;;;;19.50;67.50;;;;;;5005910;28;1271;-71
2023/11/22 00:39:16;;;;;;;;;;;19.50;67.50;;;;;;5003934;28;1902;-71
2023/11/22 00:41:42;;;;;;;;;;;19.50;67.50;;;;;;5005604;28;1872;-71
2023/11/22 00:44:07;;;;;;;;;;;19.50;67.50;;;;;;5005980;28;1677;-71
2023/11/22 00:46:33;;;;;;;;;;;19.50;67.50;;;;;;5003918;28;1492;-71
2023/11/22 00:48:58;;;;;;;;;;;19.50;67.50;;;;;;5002896;28;1679;-70
2023/11/22 00:51:24;;;;;;;;;;;19.50;67.50;;;;;;5006897;28;1631;-71
2023/11/22 00:53:49;;;;;;;;;;;19.50;67.50;;;;;;4992175;28;1509;-71
2023/11/22 00:56:15;;;;;;;;;;;19.50;67.50;;;;;;5006007;28;1506;-71
2023/11/22 00:58:40;;;;;;;;;;;19.50;67.50;;;;;;4992008;28;1968;-71
2023/11/22 01:01:06;;;;;;;;;;;19.50;67.50;;;;;;4992773;28;1311;-71
2023/11/22 01:03:32;;;;;;;;;;;19.50;67.50;;;;;;5003081;28;1253;-71
2023/11/22 01:05:57;;;;;;;;;;;19.50;67.50;;;;;;5003713;28;935;-71
2023/11/22 01:08:23;;;;;;;;;;;19.50;67.50;;;;;;5001863;28;1575;-71
2023/11/22 01:10:48;;;;;;;;;;;19.50;67.50;;;;;;5003364;28;1053;-71
2023/11/22 01:13:14;;;;;;;;;;;19.50;67.60;;;;;;5005270;28;1335;-71
2023/11/22 01:15:40;;;;;;;;;;;19.50;67.50;;;;;;5006930;28;1315;-71
2023/11/22 01:18:05;;;;;;;;;;;19.50;67.60;;;;;;4984784;28;1891;-71
2023/11/22 01:20:31;;;;;;;;;;;19.50;67.60;;;;;;5002733;28;1304;-71
2023/11/22 01:22:56;;;;;;;;;;;19.50;67.60;;;;;;5004791;28;1448;-71
2023/11/22 01:25:22;;;;;;;;;;;19.50;67.50;;;;;;5001220;28;1329;-71
2023/11/22 01:27:47;;;;;;;;;;;19.50;67.60;;;;;;5005716;28;1440;-71
2023/11/22 01:30:14;;;;;;;;;;;19.50;67.60;;;;;;5003209;28;1298;-71
2023/11/22 01:32:40;;;;;;;;;;;19.50;67.60;;;;;;5003393;28;1374;-71
2023/11/22 01:35:05;;;;;;;;;;;19.50;67.60;;;;;;5004195;28;1749;-71
2023/11/22 01:37:32;;;;;;;;;;;19.50;67.50;;;;;;5001982;28;1938;-71
2023/11/22 01:39:57;;;;;;;;;;;19.50;67.60;;;;;;5002101;28;1509;-71
2023/11/22 01:42:26;;;;;;;;;;;19.50;67.60;;;;;;5003951;28;1925;-72
2023/11/22 01:44:52;;;;;;;;;;;19.50;67.60;;;;;;5003239;28;1748;-71
2023/11/22 01:47:18;;;;;;;;;;;19.50;67.60;;;;;;5000646;28;1380;-71
2023/11/22 01:49:43;;;;;;;;;;;19.50;67.60;;;;;;5003954;28;1450;-71
2023/11/22 01:52:09;;;;;;;;;;;19.50;67.60;;;;;;5003664;28;1531;-73
2023/11/22 01:54:34;;;;;;;;;;;19.50;67.60;;;;;;5001138;28;1559;-69
2023/11/22 01:57:00;;;;;;;;;;;19.50;67.60;;;;;;5001290;28;1322;-68
2023/11/22 01:59:26;;;;;;;;;;;19.50;67.60;;;;;;5003273;28;1967;-70
2023/11/22 02:01:52;;;;;;;;;;;19.50;67.60;;;;;;5003103;28;1406;-70
2023/11/22 02:04:18;;;;;;;;;;;19.50;67.60;;;;;;5004518;28;1380;-71
2023/11/22 02:06:43;;;;;;;;;;;19.50;67.70;;;;;;4989018;28;1395;-70
2023/11/22 02:09:13;;;;;;;;;;;19.50;67.60;;;;;;5004412;28;1480;-69
2023/11/22 02:11:39;;;;;;;;;;;19.50;67.70;;;;;;4989218;28;1375;-70
2023/11/22 02:14:06;;;;;;;;;;;19.50;67.60;;;;;;4984409;28;1378;-70
2023/11/22 02:16:32;;;;;;;;;;;19.50;67.70;;;;;;5000653;28;1325;-70
2023/11/22 02:18:57;;;;;;;;;;;19.50;67.60;;;;;;5003583;28;1968;-71
2023/11/22 02:21:23;;;;;;;;;;;19.50;67.60;;;;;;4990144;28;1344;-72
2023/11/22 02:23:48;;;;;;;;;;;19.50;67.60;;;;;;5003605;28;1474;-71
2023/11/22 02:26:17;;;;;;;;;;;19.50;67.70;;;;;;4991519;28;1388;-71
2023/11/22 02:28:43;;;;;;;;;;;19.50;67.70;;;;;;5001251;28;1277;-71
2023/11/22 02:31:08;;;;;;;;;;;19.50;67.70;;;;;;5003501;28;1523;-71
2023/11/22 02:33:35;;;;;;;;;;;19.50;67.60;;;;;;5002817;28;1916;-71
2023/11/22 02:36:01;;;;;;;;;;;19.50;67.70;;;;;;5000242;28;1397;-71
2023/11/22 02:38:27;;;;;;;;;;;19.40;67.60;;;;;;5001086;28;1902;-71
2023/11/22 02:40:53;;;;;;;;;;;19.40;67.60;;;;;;5002748;28;1382;-71
2023/11/22 02:43:19;;;;;;;;;;;19.40;67.60;;;;;;5001343;28;1413;-71
2023/11/22 02:45:44;;;;;;;;;;;19.40;67.60;;;;;;5001570;28;1538;-71
2023/11/22 02:48:10;;;;;;;;;;;19.40;67.60;;;;;;5000630;28;1433;-71
2023/11/22 02:50:37;;;;;;;;;;;19.40;67.70;;;;;;5003102;28;1060;-71
2023/11/22 02:53:02;;;;;;;;;;;19.40;67.60;;;;;;4999862;28;1467;-71
2023/11/22 02:55:28;;;;;;;;;;;19.50;67.70;;;;;;5002270;28;1304;-71
2023/11/22 02:57:54;;;;;;;;;;;19.40;67.70;;;;;;4999097;28;1942;-71
2023/11/22 03:00:19;;;;;;;;;;;19.40;67.60;;;;;;5001892;28;1189;-71
2023/11/22 03:02:47;;;;;;;;;;;19.50;67.70;;;;;;5003831;28;1171;-72
2023/11/22 03:05:14;;;;;;;;;;;19.40;67.70;;;;;;5002404;28;1253;-70
2023/11/22 03:07:43;;;;;;;;;;;19.40;67.70;;;;;;4988973;28;1241;-71
2023/11/22 03:10:08;;;;;;;;;;;19.40;67.70;;;;;;5002542;28;1648;-70
2023/11/22 03:12:34;;;;;;;;;;;19.40;67.70;;;;;;5001565;28;1667;-71
2023/11/22 03:15:01;;;;;;;;;;;19.40;67.70;;;;;;4988244;28;1270;-70
2023/11/22 03:17:30;;;;;;;;;;;19.40;67.70;;;;;;5001319;28;1423;-72
2023/11/22 03:19:56;;;;;;;;;;;19.40;67.70;;;;;;4999981;28;1942;-72
2023/11/22 03:22:25;;;;;;;;;;;19.40;67.70;;;;;;5000602;28;1443;-71
2023/11/22 03:24:50;;;;;;;;;;;19.40;67.70;;;;;;4989990;28;1374;-72
2023/11/22 03:27:16;;;;;;;;;;;19.40;67.70;;;;;;4990783;28;1379;-72
2023/11/22 03:29:42;;;;;;;;;;;19.40;67.70;;;;;;4989800;28;1405;-72
2023/11/22 03:32:07;;;;;;;;;;;19.40;67.70;;;;;;5002179;28;1358;-72
2023/11/22 03:34:33;;;;;;;;;;;19.40;67.70;;;;;;4982213;28;1411;-72
2023/11/22 03:36:58;;;;;;;;;;;19.40;67.70;;;;;;5003107;28;1427;-72
2023/11/22 03:39:24;;;;;;;;;;;19.40;67.70;;;;;;5000565;28;1906;-71
2023/11/22 03:41:50;;;;;;;;;;;19.40;67.70;;;;;;5003231;28;1016;-71
2023/11/22 03:44:16;;;;;;;;;;;19.40;67.70;;;;;;4986385;28;1808;-72
2023/11/22 03:46:41;;;;;;;;;;;19.40;67.70;;;;;;5004861;28;1467;-71
2023/11/22 03:49:07;;;;;;;;;;;19.40;67.70;;;;;;4985164;28;1406;-71
2023/11/22 03:51:33;;;;;;;;;;;19.40;67.70;;;;;;5007423;28;1436;-71
2023/11/22 03:53:59;;;;;;;;;;;19.40;67.70;;;;;;5006292;28;1379;-71
2023/11/22 03:56:25;;;;;;;;;;;19.40;67.70;;;;;;5005490;28;1356;-71
2023/11/22 03:58:50;;;;;;;;;;;19.40;67.70;;;;;;5007286;28;1895;-71
2023/11/22 04:01:16;;;;;;;;;;;19.40;67.70;;;;;;5005985;28;1455;-71
2023/11/22 04:03:44;;;;;;;;;;;19.40;67.70;;;;;;5002826;28;1550;-71
2023/11/22 04:06:10;;;;;;;;;;;19.40;68.10;;;;;;5005464;28;1334;-71
2023/11/22 04:08:35;;;;;;;;;;;19.40;67.70;;;;;;5005256;28;1458;-71
2023/11/22 04:11:01;;;;;;;;;;;19.40;67.70;;;;;;5004486;28;1492;-71
2023/11/22 04:13:27;;;;;;;;;;;19.40;67.80;;;;;;5005194;28;1435;-72
2023/11/22 04:15:53;;;;;;;;;;;19.40;68.50;;;;;;4993714;28;1470;-71
2023/11/22 04:18:18;;;;;;;;;;;19.40;67.70;;;;;;5004654;28;1922;-72
2023/11/22 04:20:44;;;;;;;;;;;19.40;67.70;;;;;;5004383;28;1380;-71
2023/11/22 04:23:14;;;;;;;;;;;19.40;67.70;;;;;;4993930;28;1501;-71
2023/11/22 04:25:41;;;;;;;;;;;19.40;67.70;;;;;;5003830;28;1474;-71
2023/11/22 04:28:08;;;;;;;;;;;19.40;67.80;;;;;;5005626;28;1511;-71
2023/11/22 04:30:34;;;;;;;;;;;19.40;67.70;;;;;;4985918;28;1483;-70
2023/11/22 04:32:59;;;;;;;;;;;19.40;67.70;;;;;;5001885;28;1361;-71
2023/11/22 04:35:25;;;;;;;;;;;19.40;67.80;;;;;;5003813;28;1599;-71
2023/11/22 04:37:50;;;;;;;;;;;19.40;67.80;;;;;;5003950;28;1969;-71
2023/11/22 04:40:16;;;;;;;;;;;19.40;67.80;;;;;;5003351;28;1457;-70
2023/11/22 04:42:41;;;;;;;;;;;19.40;67.70;;;;;;5006708;28;1147;-70
2023/11/22 04:45:07;;;;;;;;;;;19.40;67.80;;;;;;5004495;28;1387;-71
2023/11/22 04:47:33;;;;;;;;;;;19.40;67.80;;;;;;5003547;28;1331;-70
2023/11/22 04:49:58;;;;;;;;;;;19.40;67.80;;;;;;4994256;28;1345;-70
2023/11/22 04:52:24;;;;;;;;;;;19.40;67.80;;;;;;4990804;28;1463;-70
2023/11/22 04:54:49;;;;;;;;;;;19.40;67.80;;;;;;5003680;28;1704;-72
2023/11/22 04:57:15;;;;;;;;;;;19.40;67.80;;;;;;5003185;28;1997;-70
2023/11/22 04:59:40;;;;;;;;;;;19.40;67.80;;;;;;5003695;28;1965;-71
2023/11/22 05:02:07;;;;;;;;;;;19.40;67.80;;;;;;5003263;28;1376;-70
2023/11/22 05:04:32;;;;;;;;;;;19.40;67.80;;;;;;5002754;28;1421;-69
2023/11/22 05:06:58;;;;;;;;;;;19.30;67.70;;;;;;5004863;28;1559;-72
2023/11/22 05:09:24;;;;;;;;;;;19.30;67.80;;;;;;5004219;28;1511;-70
2023/11/22 05:11:49;;;;;;;;;;;19.40;67.80;;;;;;5004058;28;1456;-70
2023/11/22 05:14:15;;;;;;;;;;;19.30;67.80;;;;;;4999316;28;1426;-70
2023/11/22 05:16:40;;;;;;;;;;;19.30;67.70;;;;;;5006235;28;1450;-71
2023/11/22 05:19:05;;;;;;;;;;;19.40;67.80;;;;;;5000993;28;1963;-70
2023/11/22 05:21:32;;;;;;;;;;;19.40;67.80;;;;;;5004160;28;1688;-71
2023/11/22 05:23:58;;;;;;;;;;;19.40;67.80;;;;;;5003075;28;1289;-71
2023/11/22 05:26:23;;;;;;;;;;;19.40;67.80;;;;;;5000607;28;1301;-70
2023/11/22 05:28:48;;;;;;;;;;;19.40;67.70;;;;;;4986996;28;1254;-71
2023/11/22 05:31:14;;;;;;;;;;;19.40;67.60;;;;;;5001422;28;1348;-74
2023/11/22 05:33:39;;;;;;;;;;;19.40;67.50;;;;;;5001625;28;2022;-75
2023/11/22 05:36:05;;;;;;;;;;;19.50;67.50;;;;;;5002926;28;1244;-73
2023/11/22 05:38:33;;;;;;;;;;;19.50;67.40;;;;;;4998099;28;1906;-74
2023/11/22 05:40:59;;;;;;;;;;;19.50;67.30;;;;;;5003360;28;1516;-75
2023/11/22 05:43:26;;;;;;;;;;;19.50;67.20;;;;;;4987518;28;1355;-72
2023/11/22 05:45:55;;;;;;;;;;;19.60;67.10;;;;;;4993688;28;1445;-72
2023/11/22 05:48:20;;;;;;;;;;;19.60;67.10;;;;;;4970066;28;1848;-73
2023/11/22 05:50:46;;;;;;;;;;;19.60;66.90;;;;;;4985738;28;1287;-73
2023/11/22 05:53:11;;;;;;;;;;;19.60;66.80;;;;;;4991181;28;1464;-73
2023/11/22 05:55:40;;;;;;;;;;;19.60;66.70;;;;;;5003152;28;1485;-73
2023/11/22 05:58:06;;;;;;;;;;;19.70;66.70;;;;;;5002654;28;1963;-74
2023/11/22 06:00:31;;;;;;;;;;;19.70;66.60;;;;;;4987517;28;1469;-74
2023/11/22 06:02:57;;;;;;;;;;;19.70;66.60;;;;;;5004568;28;1430;-74
2023/11/22 06:05:22;;;;;;;;;;;19.70;66.50;;;;;;5001948;28;1305;-73
2023/11/22 06:07:48;;;;;;;;;;;19.70;66.50;;;;;;5001321;28;1408;-74
2023/11/22 06:10:14;;;;;;;;;;;19.70;66.40;;;;;;5001517;28;1263;-74
2023/11/22 06:12:40;;;;;;;;;;;19.70;66.40;;;;;;5006191;28;876;-72
2023/11/22 06:15:05;;;;;;;;;;;19.70;66.30;;;;;;4987428;28;1285;-73
2023/11/22 06:17:31;;;;;;;;;;;19.70;66.30;;;;;;4992504;28;1297;-73
2023/11/22 06:19:56;;;;;;;;;;;19.70;66.20;;;;;;4989102;28;1967;-72
2023/11/22 06:22:22;;;;;;;;;;;19.70;66.20;;;;;;4990949;28;2269;-71
2023/11/22 06:24:47;;;;;;;;;;;19.80;66.20;;;;;;4984595;28;1398;-70
2023/11/22 06:27:14;;;;;;;;;;;19.80;61.90;;;;;;4993354;28;1604;-72
2023/11/22 06:29:39;;;;;;;;;;;19.80;58.60;;;;;;5002449;28;1515;-70
2023/11/22 06:32:06;;;;;;;;;;;19.70;58.30;;;;;;5000817;28;1451;-72
2023/11/22 06:34:31;;;;;;;;;;;19.70;59.00;;;;;;5001460;28;1403;-71
2023/11/22 06:36:57;;;;;;;;;;;19.70;59.00;;;;;;5001390;28;1217;-71
2023/11/22 06:39:25;;;;;;;;;;;19.70;59.30;;;;;;4989124;28;1906;-71
2023/11/22 06:41:50;;;;;;;;;;;19.70;59.60;;;;;;5002675;28;1590;-71
2023/11/22 06:44:16;;;;;;;;;;;19.70;59.80;;;;;;5001387;28;1324;-71
2023/11/22 06:46:41;;;;;;;;;;;19.70;60.10;;;;;;5003541;28;1261;-74
2023/11/22 06:49:07;;;;;;;;;;;19.70;60.50;;;;;;5000693;28;1473;-74
2023/11/22 06:51:32;;;;;;;;;;;19.70;61.00;;;;;;4984202;28;1463;-74
2023/11/22 06:53:58;;;;;;;;;;;19.70;61.40;;;;;;5002162;28;1603;-74
2023/11/22 06:56:23;;;;;;;;;;;19.70;61.70;;;;;;4985936;28;2031;-74
2023/11/22 06:58:50;;;;;;;;;;;19.70;62.00;;;;;;4991275;28;1898;-71
2023/11/22 07:01:15;;;;;;;;;;;19.70;62.30;;;;;;5001131;28;1661;-71
2023/11/22 07:03:41;;;;;;;;;;;19.70;62.50;;;;;;4999834;28;1333;-72
2023/11/22 07:06:07;;;;;;;;;;;19.70;62.70;;;;;;5001207;28;1812;-73
2023/11/22 07:08:34;;;;;;;;;;;19.70;62.90;;;;;;4985686;28;1274;-72
2023/11/22 07:11:00;;;;;;;;;;;19.70;63.00;;;;;;5000846;28;1270;-73
2023/11/22 07:13:26;;;;;;;;;;;19.70;63.10;;;;;;5004337;28;1277;-71
2023/11/22 07:15:53;;;;;;;;;;;19.70;63.20;;;;;;4999553;28;1391;-71
2023/11/22 07:18:19;;;;;;;;;;;19.70;63.40;;;;;;4990771;28;1971;-72
2023/11/22 07:20:44;;;;;;;;;;;19.70;63.50;;;;;;5001451;28;1544;-71
2023/11/22 07:23:13;;;;;;;;;;;19.70;63.60;;;;;;5000013;28;1490;-71
2023/11/22 07:25:39;;;;;;;;;;;19.70;63.70;;;;;;4988716;28;1482;-71
2023/11/22 07:28:04;;;;;;;;;;;19.70;63.80;;;;;;5000128;28;1270;-72
2023/11/22 07:30:33;;;;;;;;;;;19.70;63.80;;;;;;5000332;28;1439;-72
2023/11/22 07:32:59;;;;;;;;;;;19.70;63.90;;;;;;4983532;28;1382;-72
2023/11/22 07:35:25;;;;;;;;;;;19.70;63.90;;;;;;4997360;28;1382;-73
2023/11/22 07:37:51;;;;;;;;;;;19.70;64.00;;;;;;5002118;28;1961;-72
2023/11/22 07:40:19;;;;;;;;;;;19.70;64.10;;;;;;5000204;28;1458;-72
2023/11/22 07:42:44;;;;;;;;;;;19.70;64.20;;;;;;5002661;28;1801;-72
2023/11/22 07:45:11;;;;;;;;;;;19.70;64.20;;;;;;5003130;28;1562;-72
2023/11/22 07:47:39;;;;;;;;;;;19.70;65.10;;;;;;5002782;28;1646;-72
2023/11/22 07:50:07;;;;;;;;;;;19.70;64.30;;;;;;5001181;28;1486;-72
2023/11/22 07:52:32;;;;;;;;;;;19.60;64.30;;;;;;5002269;28;1386;-72
2023/11/22 07:54:59;;;;;;;;;;;19.60;64.40;;;;;;4998433;28;1479;-72
2023/11/22 07:57:25;;;;;;;;;;;19.60;64.40;;;;;;4966054;28;1354;-72
2023/11/22 07:59:54;;;;;;;;;;;19.60;64.40;;;;;;5001345;28;1944;-71
2023/11/22 08:02:19;;;;;;;;;;;19.60;64.50;;;;;;4999424;28;1355;-72
2023/11/22 08:04:46;;;;;;;;;;;19.60;64.60;;;;;;5003685;28;1402;-72
2023/11/22 08:07:14;;;;;;;;;;;19.60;64.60;;;;;;5002966;28;1297;-72
2023/11/22 08:09:40;;;;;;;;;;;19.60;64.70;;;;;;4999237;28;1303;-72
2023/11/22 08:12:07;;;;;;;;;;;19.60;64.80;;;;;;4999330;28;1396;-72
2023/11/22 08:14:33;;;;;;;;;;;19.60;64.80;;;;;;5003115;28;1445;-71
2023/11/22 08:16:58;;;;;;;;;;;19.60;64.80;;;;;;5002248;28;1075;-71
2023/11/22 08:19:24;;;;;;;;;;;19.60;64.90;;;;;;5001943;28;1919;-72
2023/11/22 08:21:50;;;;;;;;;;;19.60;64.90;;;;;;4996968;28;1321;-72
2023/11/22 08:24:15;;;;;;;;;;;19.60;64.90;;;;;;5001077;28;1451;-72
2023/11/22 08:26:41;;;;;;;;;;;19.60;65.00;;;;;;5004458;28;1994;-72
2023/11/22 08:29:11;;;;;;;;;;;19.60;65.00;;;;;;5002855;28;1632;-72
2023/11/22 08:31:36;;;;;;;;;;;19.60;65.10;;;;;;5005857;28;1535;-75
2023/11/22 08:34:04;;;;;;;;;;;19.60;65.10;;;;;;5006179;28;1331;-74
2023/11/22 08:36:31;;;;;;;;;;;19.50;65.10;;;;;;5006261;28;1391;-74
2023/11/22 08:38:59;;;;;;;;;;;19.50;65.10;;;;;;5004684;28;1914;-72
2023/11/22 08:41:25;;;;;;;;;;;19.50;65.10;;;;;;4992828;28;1430;-72
2023/11/22 08:43:50;;;;;;;;;;;19.60;65.20;;;;;;4994457;28;1409;-72
2023/11/22 08:46:16;;;;;;;;;;;19.50;65.20;;;;;;5003267;28;1385;-73
2023/11/22 08:48:41;;;;;;;;;;;19.60;65.20;;;;;;5000100;28;1208;-72
2023/11/22 08:51:07;;;;;;;;;;;19.50;65.20;;;;;;5004152;28;1833;-72
2023/11/22 08:53:33;;;;;;;;;;;19.60;65.20;;;;;;5004145;28;2371;-72
2023/11/22 08:55:58;;;;;;;;;;;19.60;65.20;;;;;;4996869;28;4105;-73
2023/11/22 08:58:24;;;;;;;;;;;19.60;65.20;;;;;;5004806;28;2401;-74
2023/11/22 09:00:49;;;;;;;;;;;19.60;65.10;;;;;;4990341;28;3146;-72
2023/11/22 09:03:17;;;;;;;;;;;19.60;65.10;;;;;;5001529;28;1076;-72
2023/11/22 09:05:43;;;;;;;;;;;19.60;65.00;;;;;;5004731;28;1285;-72
2023/11/22 09:08:13;;;;;;;;;;;19.60;65.00;;;;;;4987844;28;965;-73
2023/11/22 09:10:39;;;;;;;;;;;19.70;65.00;;;;;;5001875;28;1781;-73
2023/11/22 09:13:05;;;;;;;;;;;19.70;65.10;;;;;;4992554;28;1107;-73
2023/11/22 09:15:33;;;;;;;;;;;19.70;65.10;;;;;;5004247;28;1460;-72
2023/11/22 09:17:59;;;;;;;;;;;19.70;65.00;;;;;;5002242;28;1902;-72
2023/11/22 09:20:24;;;;;;;;;;;19.70;65.00;;;;;;5002145;28;1328;-71
2023/11/22 09:22:50;;;;;;;;;;;19.70;65.00;;;;;;5006379;28;1472;-74
2023/11/22 09:25:26;;;;;;;;;;;19.70;64.90;;;;;;4986520;28;1405;-73
2023/11/22 09:27:52;;;;;;;;;;;19.70;64.90;;;;;;5000810;28;1481;-73
2023/11/22 09:30:32;;;;;;;;;;;19.70;64.90;;;;;;4992093;28;1389;-72
2023/11/22 09:33:07;;;;;;;;;;;19.70;64.80;;;;;;4994058;28;1647;-72
2023/11/22 09:35:33;;;;;;;;;;;19.70;64.80;;;;;;5005629;28;1356;-72
2023/11/22 09:38:02;;;;;;;;;;;19.80;64.90;;;;;;5000957;28;1902;-73
2023/11/22 09:40:28;;;;;;;;;;;19.70;64.80;;;;;;4990270;28;1466;-72
2023/11/22 09:42:55;;;;;;;;;;;19.80;64.80;;;;;;5000544;28;1527;-72
2023/11/22 09:45:21;;;;;;;;;;;19.80;64.80;;;;;;5004648;28;1604;-71
2023/11/22 09:47:46;;;;;;;;;;;19.80;64.80;;;;;;4986393;28;1298;-71
2023/11/22 09:50:26;;;;;;;;;;;19.80;64.80;;;;;;5002554;28;1305;-72
2023/11/22 09:52:54;;;;;;;;;;;19.80;64.80;;;;;;4992131;28;1290;-72
2023/11/22 09:55:22;;;;;;;;;;;19.80;64.80;;;;;;4991910;28;1480;-72
2023/11/22 09:57:47;;;;;;;;;;;19.80;65.50;;;;;;4990545;28;1415;-72
2023/11/22 10:00:14;;;;;;;;;;;19.80;64.70;;;;;;4984020;28;1899;-72
2023/11/22 10:02:40;;;;;;;;;;;19.80;64.70;;;;;;4993273;28;1937;-74
2023/11/22 10:05:06;;;;;;;;;;;19.80;64.70;;;;;;4992939;28;1350;-74
2023/11/22 10:07:32;;;;;;;;;;;19.80;64.70;;;;;;5004398;28;1338;-74
2023/11/22 10:10:01;;;;;;;;;;;19.80;64.70;;;;;;4990644;28;1376;-74
2023/11/22 10:12:29;;;;;;;;;;;19.80;64.70;;;;;;4995897;28;1689;-74
2023/11/22 10:14:55;;;;;;;;;;;19.80;64.70;;;;;;4990325;28;1354;-74
2023/11/22 10:17:20;;;;;;;;;;;19.80;64.70;;;;;;4984203;28;1563;-74
2023/11/22 10:19:46;;;;;;;;;;;19.80;64.60;;;;;;5002139;28;1939;-74
2023/11/22 10:22:17;;;;;;;;;;;19.80;64.60;;;;;;5002015;28;1487;-74
2023/11/22 10:24:42;;;;;;;;;;;19.80;64.60;;;;;;5003564;28;1530;-74
2023/11/22 10:27:08;;;;;;;;;;;19.80;64.70;;;;;;4991152;28;1568;-74
2023/11/22 10:29:35;;;;;;;;;;;19.80;64.60;;;;;;4990462;28;1522;-73
2023/11/22 10:32:02;;;;;;;;;;;19.80;64.60;;;;;;4987149;28;1873;-73
2023/11/22 10:34:28;;;;;;;;;;;19.80;64.70;;;;;;4989971;28;1558;-73
2023/11/22 10:36:55;;;;;;;;;;;19.80;64.60;;;;;;4990244;28;1423;-74
2023/11/22 10:39:21;;;;;;;;;;;19.80;64.70;;;;;;4999213;28;1988;-74
2023/11/22 10:41:47;;;;;;;;;;;19.80;64.70;;;;;;4983766;28;1505;-74
2023/11/22 10:44:12;;;;;;;;;;;19.80;64.70;;;;;;4988481;28;1459;-74
2023/11/22 10:46:39;;;;;;;;;;;19.80;64.70;;;;;;5001106;28;1787;-75
2023/11/22 10:49:04;;;;;;;;;;;19.80;64.70;;;;;;4980143;28;1573;-73
2023/11/22 10:51:33;;;;;;;;;;;19.80;64.70;;;;;;4997776;28;1482;-73
2023/11/22 10:54:00;;;;;;;;;;;19.80;64.70;;;;;;4990148;28;1556;-74
2023/11/22 10:56:27;;;;;;;;;;;19.80;64.70;;;;;;5001817;28;1449;-74
2023/11/22 10:58:56;;;;;;;;;;;19.80;64.70;;;;;;5000250;28;1894;-73
2023/11/22 11:01:25;;;;;;;;;;;19.80;64.70;;;;;;4987809;28;1444;-73
2023/11/22 11:04:08;;;;;;;;;;;19.80;64.70;;;;;;5002305;28;1309;-74
2023/11/22 11:06:34;;;;;;;;;;;19.80;64.70;;;;;;4963756;28;1351;-74
2023/11/22 11:09:00;;;;;;;;;;;19.90;64.70;;;;;;4994017;28;1191;-73
2023/11/22 11:11:26;;;;;;;;;;;19.90;64.70;;;;;;5002259;28;1360;-74
2023/11/22 11:13:52;;;;;;;;;;;19.90;64.70;;;;;;4990841;28;1409;-74
2023/11/22 11:16:18;;;;;;;;;;;19.90;64.70;;;;;;5002261;28;1239;-74
2023/11/22 11:18:43;;;;;;;;;;;19.80;64.60;;;;;;4999745;28;2007;-74
2023/11/22 11:21:13;;;;;;;;;;;19.90;64.70;;;;;;4990463;28;1243;-74
2023/11/22 11:23:38;;;;;;;;;;;19.90;64.70;;;;;;4984301;28;1391;-74
2023/11/22 11:26:17;;;;;;;;;;;19.90;65.40;;;;;;4999177;28;1448;-74
2023/11/22 11:28:49;;;;;;;;;;;19.90;64.70;;;;;;4990543;28;1414;-74
2023/11/22 11:31:15;;;;;;;;;;;19.90;64.70;;;;;;5001763;28;1470;-74
2023/11/22 11:33:53;;;;;;;;;;;19.80;64.60;;;;;;5002041;28;1414;-74
2023/11/22 11:36:25;;;;;;;;;;;19.90;64.70;;;;;;5004252;28;1349;-74
2023/11/22 11:38:55;;;;;;;;;;;19.80;64.70;;;;;;5001261;28;1906;-74
2023/11/22 11:41:47;;;;;;;;;;;19.90;64.70;;;;;;4991144;28;1274;-74
2023/11/22 11:44:12;;;;;;;;;;;19.90;64.70;;;;;;4998953;28;1540;-74
2023/11/22 11:46:38;;;;;;;;;;;19.80;65.40;;;;;;5002783;28;1636;-74
2023/11/22 11:49:10;;;;;;;;;;;19.90;64.70;;;;;;4985278;28;944;-75
2023/11/22 11:51:36;;;;;;;;;;;19.90;64.70;;;;;;4982398;28;1157;-74
2023/11/22 11:54:01;;;;;;;;;;;19.90;64.70;;;;;;4982847;28;1418;-75
2023/11/22 11:56:29;;;;;;;;;;;19.90;64.70;;;;;;4982525;28;1022;-74
2023/11/22 11:58:57;;;;;;;;;;;19.90;64.60;;;;;;4990184;28;1906;-74
2023/11/22 12:01:22;;;;;;;;;;;19.90;64.60;;;;;;4984164;28;1456;-74
2023/11/22 12:03:48;;;;;;;;;;;19.90;64.60;;;;;;5006321;28;1299;-73
2023/11/22 12:06:14;;;;;;;;;;;19.90;64.60;;;;;;5004380;28;1007;-73
2023/11/22 12:08:40;;;;;;;;;;;19.90;64.60;;;;;;5004990;28;1345;-74
2023/11/22 12:11:08;;;;;;;;;;;19.90;64.60;;;;;;4991755;28;1850;-74
2023/11/22 12:13:33;;;;;;;;;;;19.90;64.60;;;;;;4989753;28;1355;-74
2023/11/22 12:15:59;;;;;;;;;;;19.90;64.60;;;;;;5006931;28;1519;-74
2023/11/22 12:18:25;;;;;;;;;;;19.90;64.50;;;;;;4993635;28;2205;-74
2023/11/22 12:20:54;;;;;;;;;;;19.90;64.50;;;;;;5002995;28;1559;-73
2023/11/22 12:23:20;;;;;;;;;;;19.90;64.50;;;;;;5003962;28;1498;-74
2023/11/22 12:25:46;;;;;;;;;;;19.90;64.50;;;;;;5003356;28;1957;-74
2023/11/22 12:28:11;;;;;;;;;;;19.90;64.50;;;;;;5005966;28;1965;-73
2023/11/22 12:30:38;;;;;;;;;;;19.90;64.50;;;;;;5004355;28;1400;-73
2023/11/22 12:33:04;;;;;;;;;;;19.90;64.50;;;;;;5002503;28;1270;-73
2023/11/22 12:35:30;;;;;;;;;;;19.90;64.50;;;;;;4992426;28;1304;-74
2023/11/22 12:37:56;;;;;;;;;;;19.90;64.50;;;;;;5006152;28;1334;-72
2023/11/22 12:40:21;;;;;;;;;;;19.90;64.50;;;;;;4989605;28;1910;-72
2023/11/22 12:42:50;;;;;;;;;;;19.90;64.50;;;;;;5005916;28;1353;-73
2023/11/22 12:45:23;;;;;;;;;;;19.90;64.50;;;;;;5003006;28;1366;-76
2023/11/22 12:47:52;;;;;;;;;;;19.90;64.60;;;;;;4982681;28;1474;-73
2023/11/22 12:50:30;;;;;;;;;;;19.90;64.50;;;;;;5003740;28;1527;-73
2023/11/22 12:52:55;;;;;;;;;;;19.90;64.50;;;;;;5000680;28;1412;-72
2023/11/22 12:55:21;;;;;;;;;;;19.90;64.60;;;;;;5002991;28;1389;-73
2023/11/22 12:57:56;;;;;;;;;;;19.90;64.60;;;;;;4990095;28;1490;-74
2023/11/22 13:00:21;;;;;;;;;;;19.90;64.60;;;;;;5000533;28;1906;-74
2023/11/22 13:02:47;;;;;;;;;;;19.90;64.60;;;;;;5004600;28;1372;-74
2023/11/22 13:05:15;;;;;;;;;;;19.90;64.60;;;;;;4990155;28;2177;-74
2023/11/22 13:07:43;;;;;;;;;;;19.90;64.60;;;;;;5001466;28;1417;-74
2023/11/22 13:10:09;;;;;;;;;;;19.90;64.60;;;;;;5004344;28;1367;-74
2023/11/22 13:12:35;;;;;;;;;;;19.90;64.60;;;;;;5001267;28;1535;-74
2023/11/22 13:15:00;;;;;;;;;;;19.90;64.60;;;;;;4985797;28;1388;-75
2023/11/22 13:17:26;;;;;;;;;;;19.90;64.60;;;;;;5002335;28;1394;-74
2023/11/22 13:19:51;;;;;;;;;;;19.90;65.30;;;;;;5001663;28;1978;-73
2023/11/22 13:22:19;;;;;;;;;;;19.90;64.60;;;;;;5004480;28;1117;-73
2023/11/22 13:24:44;;;;;;;;;;;19.90;64.60;;;;;;4990807;28;1350;-74
2023/11/22 13:27:10;;;;;;;;;;;19.90;64.60;;;;;;4990205;28;1471;-74
2023/11/22 13:29:35;;;;;;;;;;;19.90;64.60;;;;;;4985615;28;1332;-74
2023/11/22 13:32:01;;;;;;;;;;;19.90;64.60;;;;;;5004422;28;1317;-74
2023/11/22 13:34:26;;;;;;;;;;;19.90;64.70;;;;;;4985629;28;1474;-75
2023/11/22 13:36:51;;;;;;;;;;;19.90;64.70;;;;;;4994206;28;1534;-74
2023/11/22 13:39:17;;;;;;;;;;;19.80;64.70;;;;;;4988813;28;1899;-74
2023/11/22 13:41:42;;;;;;;;;;;19.80;64.70;;;;;;5004098;28;1504;-74
2023/11/22 13:44:08;;;;;;;;;;;19.80;64.70;;;;;;4985867;28;1324;-73
2023/11/22 13:46:33;;;;;;;;;;;19.80;64.80;;;;;;5003489;28;1337;-72
2023/11/22 13:48:59;;;;;;;;;;;19.80;64.80;;;;;;5002048;28;1270;-73
2023/11/22 13:51:24;;;;;;;;;;;19.80;64.80;;;;;;4985276;28;1478;-73
2023/11/22 13:53:53;;;;;;;;;;;19.80;64.90;;;;;;5004168;28;1421;-73
2023/11/22 13:56:18;;;;;;;;;;;19.80;64.90;;;;;;5003475;28;1271;-73
2023/11/22 13:58:44;;;;;;;;;;;19.80;64.90;;;;;;4991933;28;1985;-74
2023/11/22 14:01:15;;;;;;;;;;;19.80;64.90;;;;;;5003957;28;1452;-74
2023/11/22 14:03:40;;;;;;;;;;;19.80;64.90;;;;;;5001680;28;1388;-74
2023/11/22 14:06:06;;;;;;;;;;;19.80;64.90;;;;;;5004618;28;1312;-73
2023/11/22 14:08:31;;;;;;;;;;;19.80;64.80;;;;;;4984996;28;1501;-72
2023/11/22 14:10:57;;;;;;;;;;;19.80;64.80;;;;;;5004358;28;1256;-73
2023/11/22 14:13:22;;;;;;;;;;;19.80;64.70;;;;;;4990775;28;1850;-73
2023/11/22 14:15:48;;;;;;;;;;;19.80;64.80;;;;;;5003643;28;1209;-73
2023/11/22 14:18:13;;;;;;;;;;;19.90;64.80;;;;;;5002258;28;1906;-73
2023/11/22 14:20:39;;;;;;;;;;;19.80;64.80;;;;;;4991626;28;1979;-73
2023/11/22 14:23:04;;;;;;;;;;;19.80;64.80;;;;;;5004172;28;1262;-73
2023/11/22 14:25:31;;;;;;;;;;;19.80;64.80;;;;;;5001497;28;1326;-72